Аэропорт: Омск-Центральный. Омск

ICAO: UNOO

METAR:
2019-07-23 18:30:00
UNOO 231830Z 05002MPS 4400 FU NSC 18/14 Q1003 R25/CLRD60 NOSIG RMK QFE744
METAR:
2019-07-23 16:45:00
TAF UNOO 231645Z 2318/2418 VRB01MPS 3100 FU SCT033 TEMPO 2322/2401 1000 BR FU BECMG 2402/2403 03003G08MPS